createdAt,value
2022-10-01T00:00:51.111Z,83.01
2022-10-01T00:01:50.884Z,83.32
2022-10-01T00:02:50.933Z,82.91
2022-10-01T00:03:51.073Z,82.91
2022-10-01T00:04:50.832Z,83.22
2022-10-01T00:05:50.804Z,83.22
2022-10-01T00:06:50.814Z,83.01
2022-10-01T00:07:50.779Z,83.01
2022-10-01T00:08:50.787Z,83.01
2022-10-01T00:09:50.743Z,82.91
2022-10-01T00:10:50.752Z,83.22
2022-10-01T00:11:50.742Z,83.22
2022-10-01T00:12:50.717Z,83.01
2022-10-01T00:13:50.718Z,83.32
2022-10-01T00:14:50.703Z,83.42
2022-10-01T00:15:50.673Z,83.42
2022-10-01T00:16:50.980Z,83.42
2022-10-01T00:17:50.923Z,83.22
2022-10-01T00:18:50.661Z,83.22
2022-10-01T00:19:50.643Z,83.32
2022-10-01T00:20:50.635Z,83.32
2022-10-01T00:21:50.634Z,83.42
2022-10-01T00:22:50.603Z,83.62
2022-10-01T00:23:50.615Z,83.52
2022-10-01T00:24:50.591Z,83.42
2022-10-01T00:25:50.564Z,83.42
2022-10-01T00:26:50.579Z,83.42
2022-10-01T00:27:50.612Z,83.42
2022-10-01T00:28:50.535Z,83.59
2022-10-01T00:29:50.519Z,83.79
2022-10-01T00:30:50.797Z,83.28
2022-10-01T00:31:50.610Z,82.97
2022-10-01T00:32:50.484Z,83.28
2022-10-01T00:33:50.509Z,82.87
2022-10-01T00:34:50.478Z,82.97
2022-10-01T00:35:50.456Z,82.87
2022-10-01T00:36:50.449Z,82.77
2022-10-01T00:37:50.724Z,82.77
2022-10-01T00:38:50.441Z,82.97
2022-10-01T00:39:50.415Z,82.87
2022-10-01T00:40:50.428Z,82.97
2022-10-01T00:41:50.414Z,83.18
2022-10-01T00:42:50.366Z,82.97
2022-10-01T00:43:50.368Z,83.18
2022-10-01T00:44:50.390Z,83.18
2022-10-01T00:45:50.389Z,83.48
2022-10-01T00:46:50.336Z,83.38
2022-10-01T00:47:50.337Z,83.38
2022-10-01T00:48:50.298Z,83.18
2022-10-01T00:49:50.296Z,83.38
2022-10-01T00:50:50.284Z,83.18
2022-10-01T00:51:50.286Z,83.18
2022-10-01T00:52:50.260Z,83.07
2022-10-01T00:53:50.258Z,83.07
2022-10-01T00:54:50.252Z,83.18
2022-10-01T00:55:50.249Z,83.28
2022-10-01T00:56:50.220Z,84.00
2022-10-01T00:57:50.529Z,83.69
2022-10-01T00:58:50.223Z,83.38
2022-10-01T00:59:50.186Z,83.48
2022-10-01T01:00:50.169Z,83.38
2022-10-01T01:01:50.584Z,83.65
2022-10-01T01:02:50.231Z,83.54
2022-10-01T01:03:50.132Z,83.75
2022-10-01T01:04:50.159Z,84.67
2022-10-01T01:05:50.110Z,84.16
2022-10-01T01:06:50.119Z,84.98
2022-10-01T01:07:50.091Z,84.88
2022-10-01T01:08:50.370Z,85.79
2022-10-01T01:09:50.069Z,85.49
2022-10-01T01:10:50.055Z,86.04
2022-10-01T01:11:50.331Z,86.51
2022-10-01T01:12:50.050Z,86.76
2022-10-01T01:13:50.023Z,86.96
2022-10-01T01:14:50.029Z,88.08
2022-10-01T01:15:50.311Z,88.39
2022-10-01T01:16:50.013Z,89.31
2022-10-01T01:17:49.983Z,90.84
2022-10-01T01:18:50.284Z,90.74
2022-10-01T01:19:49.965Z,91.46
2022-10-01T01:20:49.987Z,91.60
2022-10-01T01:21:51.066Z,92.11
2022-10-01T01:22:49.940Z,92.62
2022-10-01T01:23:49.905Z,92.77
2022-10-01T01:24:49.910Z,93.33
2022-10-01T01:25:49.915Z,93.18
2022-10-01T01:26:49.903Z,92.87
2022-10-01T01:27:49.914Z,93.59
2022-10-01T01:28:49.887Z,94.10
2022-10-01T01:29:49.853Z,94.92
2022-10-01T01:30:49.895Z,94.81
2022-10-01T01:31:49.823Z,95.02
2022-10-01T01:32:49.826Z,95.22
2022-10-01T01:33:49.812Z,95.84
2022-10-01T01:34:49.784Z,96.86
2022-10-01T01:35:49.785Z,97.16
2022-10-01T01:36:49.787Z,97.00
2022-10-01T01:37:49.754Z,96.91
2022-10-01T01:38:49.736Z,96.91
2022-10-01T01:39:50.044Z,97.31
2022-10-01T01:40:49.727Z,98.03
2022-10-01T01:41:49.714Z,98.33
2022-10-01T01:42:50.008Z,97.72
2022-10-01T01:43:49.988Z,97.41
2022-10-01T01:44:49.714Z,97.31
2022-10-01T01:45:49.715Z,97.31
2022-10-01T01:46:49.687Z,97.41
2022-10-01T01:47:49.652Z,97.62
2022-10-01T01:48:50.537Z,98.19
2022-10-01T01:49:49.936Z,98.65
2022-10-01T01:50:49.614Z,98.65
2022-10-01T01:51:49.598Z,98.74
2022-10-01T01:52:49.634Z,98.95
2022-10-01T01:53:49.856Z,99.46
2022-10-01T01:54:49.556Z,99.99
2022-10-01T01:55:49.541Z,99.99
2022-10-01T01:56:49.559Z,99.99
2022-10-01T01:57:49.528Z,99.99
2022-10-01T01:58:49.527Z,99.99
2022-10-01T01:59:49.571Z,99.99
2022-10-01T02:00:49.507Z,99.99
2022-10-01T02:01:49.637Z,99.99
2022-10-01T02:02:49.517Z,99.99
2022-10-01T02:03:49.482Z,99.99
2022-10-01T02:04:49.448Z,99.99
2022-10-01T02:05:49.438Z,99.99
2022-10-01T02:06:49.449Z,99.99
2022-10-01T02:07:49.438Z,99.99
2022-10-01T02:08:49.401Z,99.99
2022-10-01T02:09:49.397Z,99.99
2022-10-01T02:10:49.650Z,99.99
2022-10-01T02:11:49.377Z,99.99
2022-10-01T02:12:49.345Z,99.99
2022-10-01T02:13:49.355Z,99.99
2022-10-01T02:14:49.339Z,99.99
2022-10-01T02:15:49.347Z,99.99
2022-10-01T02:16:49.355Z,99.99
2022-10-01T02:17:49.308Z,99.99
2022-10-01T02:18:49.287Z,99.99
2022-10-01T02:19:50.107Z,99.99
2022-10-01T02:20:49.287Z,99.99
2022-10-01T02:21:49.849Z,99.99
2022-10-01T02:22:49.239Z,99.99
2022-10-01T02:23:49.249Z,99.99
2022-10-01T02:24:49.485Z,99.99
2022-10-01T02:25:49.206Z,99.99
2022-10-01T02:26:49.197Z,99.99
2022-10-01T02:27:49.477Z,99.99
2022-10-01T02:28:49.170Z,99.99
2022-10-01T02:29:49.150Z,99.99
2022-10-01T02:30:49.433Z,99.99
2022-10-01T02:31:49.160Z,99.99
2022-10-01T02:32:49.124Z,99.99
2022-10-01T02:33:49.108Z,99.99
2022-10-01T02:34:49.406Z,99.99
2022-10-01T02:35:49.073Z,99.99
2022-10-01T02:36:49.099Z,99.99
2022-10-01T02:37:49.071Z,99.99
2022-10-01T02:38:49.341Z,99.99
2022-10-01T02:39:49.033Z,99.99
2022-10-01T02:40:49.021Z,99.99
2022-10-01T02:41:49.031Z,99.99
2022-10-01T02:42:48.998Z,99.99
2022-10-01T02:43:48.991Z,99.99
2022-10-01T02:44:49.001Z,99.99
2022-10-01T02:45:49.012Z,99.99
2022-10-01T02:46:48.963Z,99.99
2022-10-01T02:47:48.952Z,99.99
2022-10-01T02:48:48.953Z,99.99
2022-10-01T02:49:48.916Z,99.99
2022-10-01T02:50:48.910Z,99.99
2022-10-01T02:51:48.923Z,99.99
2022-10-01T02:52:48.913Z,99.99
2022-10-01T02:53:48.875Z,99.99
2022-10-01T02:54:48.893Z,99.99
2022-10-01T02:55:48.866Z,99.99
2022-10-01T02:56:49.868Z,99.99
2022-10-01T02:57:48.828Z,99.99
2022-10-01T02:58:48.836Z,99.99
2022-10-01T02:59:49.175Z,99.99
2022-10-01T03:00:48.784Z,99.99
2022-10-01T03:01:48.889Z,99.99
2022-10-01T03:02:48.810Z,99.99
2022-10-01T03:03:48.756Z,99.99
2022-10-01T03:04:48.742Z,99.99
2022-10-01T03:05:48.774Z,99.99
2022-10-01T03:06:48.823Z,99.99
2022-10-01T03:07:48.715Z,99.99
2022-10-01T03:08:48.725Z,99.99
2022-10-01T03:09:48.714Z,99.99
2022-10-01T03:10:48.674Z,99.99
2022-10-01T03:11:48.955Z,99.99
2022-10-01T03:12:48.656Z,99.99
2022-10-01T03:13:48.637Z,99.99
2022-10-01T03:14:48.623Z,99.99
2022-10-01T03:15:48.988Z,99.99
2022-10-01T03:16:48.624Z,99.99
2022-10-01T03:17:48.600Z,99.99
2022-10-01T03:18:48.607Z,99.99
2022-10-01T03:19:48.576Z,99.99
2022-10-01T03:20:48.549Z,99.99
2022-10-01T03:21:48.556Z,99.99
2022-10-01T03:22:48.802Z,99.99
2022-10-01T03:23:48.526Z,99.99
2022-10-01T03:24:48.505Z,99.99
2022-10-01T03:25:48.786Z,99.99
2022-10-01T03:26:48.769Z,99.99
2022-10-01T03:27:48.507Z,99.99
2022-10-01T03:28:48.450Z,99.99
2022-10-01T03:29:48.460Z,99.99
2022-10-01T03:30:48.439Z,99.99
2022-10-01T03:31:48.540Z,99.99
2022-10-01T03:32:48.717Z,99.99
2022-10-01T03:33:49.521Z,99.99
2022-10-01T03:34:48.388Z,99.99
2022-10-01T03:35:48.410Z,99.99
2022-10-01T03:36:48.689Z,99.99
2022-10-01T03:37:48.349Z,99.99
2022-10-01T03:38:48.345Z,99.99
2022-10-01T03:39:48.621Z,99.99
2022-10-01T03:40:48.343Z,99.99
2022-10-01T03:41:48.308Z,99.99
2022-10-01T03:42:48.318Z,99.99
2022-10-01T03:43:48.290Z,99.99
2022-10-01T03:44:48.278Z,99.99
2022-10-01T03:45:48.315Z,99.99
2022-10-01T03:46:48.280Z,99.99
2022-10-01T03:47:48.230Z,99.99
2022-10-01T03:48:48.229Z,99.99
2022-10-01T03:49:48.216Z,99.99
2022-10-01T03:50:48.222Z,99.99
2022-10-01T03:51:48.213Z,99.99
2022-10-01T03:52:48.205Z,99.99
2022-10-01T03:53:48.189Z,99.99
2022-10-01T03:54:48.159Z,99.99
2022-10-01T03:55:48.140Z,99.99
2022-10-01T03:56:48.173Z,99.99
2022-10-01T03:57:48.124Z,99.99
2022-10-01T03:58:48.104Z,99.99
2022-10-01T03:59:48.092Z,99.99
2022-10-01T04:00:48.114Z,99.99
2022-10-01T04:01:48.191Z,99.99
2022-10-01T04:02:48.086Z,99.99
2022-10-01T04:03:48.074Z,99.99
2022-10-01T04:04:48.039Z,99.99
2022-10-01T04:05:48.031Z,99.99
2022-10-01T04:06:48.062Z,99.99
2022-10-01T04:07:48.002Z,99.99
2022-10-01T04:08:47.993Z,99.99
2022-10-01T04:09:47.980Z,99.99
2022-10-01T04:10:47.992Z,99.99
2022-10-01T04:11:48.247Z,99.99
2022-10-01T04:12:47.941Z,99.99
2022-10-01T04:13:48.897Z,99.99
2022-10-01T04:14:47.931Z,99.99
2022-10-01T04:15:47.964Z,99.99
2022-10-01T04:16:47.907Z,99.99
2022-10-01T04:17:47.911Z,99.99
2022-10-01T04:18:47.886Z,99.99
2022-10-01T04:19:47.863Z,99.99
2022-10-01T04:20:47.873Z,99.99
2022-10-01T04:21:47.874Z,99.99
2022-10-01T04:22:47.827Z,99.99
2022-10-01T04:23:47.813Z,99.99
2022-10-01T04:24:47.812Z,99.99
2022-10-01T04:25:47.813Z,99.99
2022-10-01T04:26:47.798Z,99.99
2022-10-01T04:27:47.832Z,99.99
2022-10-01T04:28:48.058Z,99.99
2022-10-01T04:29:47.744Z,99.99
2022-10-01T04:30:47.764Z,99.99
2022-10-01T04:31:47.811Z,99.99
2022-10-01T04:32:47.715Z,99.99
2022-10-01T04:33:47.695Z,99.99
2022-10-01T04:34:47.714Z,99.99
2022-10-01T04:35:47.703Z,99.99
2022-10-01T04:36:47.684Z,99.99
2022-10-01T04:37:47.675Z,99.99
2022-10-01T04:38:47.654Z,99.99
2022-10-01T04:39:47.629Z,99.99
2022-10-01T04:40:47.616Z,99.99
2022-10-01T04:41:47.901Z,99.99
2022-10-01T04:42:47.590Z,99.99
2022-10-01T04:43:47.591Z,99.99
2022-10-01T04:44:47.594Z,99.99
2022-10-01T04:45:47.566Z,99.99
2022-10-01T04:46:47.619Z,99.99
2022-10-01T04:47:47.525Z,99.99
2022-10-01T04:48:47.540Z,99.99
2022-10-01T04:49:47.879Z,99.99
2022-10-01T04:50:47.497Z,99.99
2022-10-01T04:51:47.788Z,99.99
2022-10-01T04:52:47.748Z,99.99
2022-10-01T04:53:47.459Z,99.99
2022-10-01T04:54:47.479Z,99.99
2022-10-01T04:55:47.433Z,99.99
2022-10-01T04:56:47.502Z,99.99
2022-10-01T04:57:47.408Z,99.99
2022-10-01T04:58:47.687Z,99.99
2022-10-01T04:59:47.418Z,99.99
2022-10-01T05:00:47.459Z,99.99
2022-10-01T05:01:47.704Z,99.99
2022-10-01T05:02:47.398Z,99.99
2022-10-01T05:03:47.380Z,99.99
2022-10-01T05:04:47.332Z,99.99
2022-10-01T05:05:47.600Z,99.99
2022-10-01T05:06:47.436Z,99.99
2022-10-01T05:07:47.297Z,99.99
2022-10-01T05:08:47.559Z,99.99
2022-10-01T05:09:47.566Z,99.99
2022-10-01T05:10:47.263Z,99.99
2022-10-01T05:11:47.260Z,99.99
2022-10-01T05:12:47.261Z,99.99
2022-10-01T05:13:47.240Z,99.99
2022-10-01T05:14:47.248Z,99.99
2022-10-01T05:15:47.231Z,99.99
2022-10-01T05:16:47.235Z,99.99
2022-10-01T05:17:47.190Z,99.99
2022-10-01T05:18:47.194Z,99.99
2022-10-01T05:19:47.479Z,99.99
2022-10-01T05:20:47.443Z,99.99
2022-10-01T05:21:47.141Z,99.99
2022-10-01T05:22:47.150Z,99.99
2022-10-01T05:23:47.123Z,99.99
2022-10-01T05:24:47.112Z,99.99
2022-10-01T05:25:47.433Z,99.99
2022-10-01T05:26:47.351Z,99.99
2022-10-01T05:27:47.124Z,99.99
2022-10-01T05:28:47.062Z,99.88
2022-10-01T05:29:48.162Z,99.78
2022-10-01T05:30:47.074Z,99.57
2022-10-01T05:31:47.095Z,99.57
2022-10-01T05:32:47.312Z,99.78
2022-10-01T05:33:47.029Z,99.78
2022-10-01T05:34:49.966Z,99.68
2022-10-01T05:35:47.992Z,99.68
2022-10-01T05:36:46.983Z,99.57
2022-10-01T05:37:46.977Z,99.37
2022-10-01T05:38:46.933Z,99.47
2022-10-01T05:39:46.963Z,99.27
2022-10-01T05:40:47.285Z,99.37
2022-10-01T05:41:46.932Z,99.84
2022-10-01T05:42:47.304Z,99.99
2022-10-01T05:43:46.925Z,99.99
2022-10-01T05:44:46.886Z,99.99
2022-10-01T05:45:46.958Z,99.57
2022-10-01T05:46:46.869Z,99.52
2022-10-01T05:47:46.850Z,99.22
2022-10-01T05:48:46.834Z,99.43
2022-10-01T05:49:47.105Z,99.02
2022-10-01T05:50:47.069Z,99.02
2022-10-01T05:51:46.813Z,99.11
2022-10-01T05:52:46.785Z,98.81
2022-10-01T05:53:50.187Z,98.91
2022-10-01T05:54:46.753Z,99.02
2022-10-01T05:55:46.745Z,99.52
2022-10-01T05:56:47.035Z,99.43
2022-10-01T05:57:46.726Z,99.43
2022-10-01T05:58:46.713Z,98.91
2022-10-01T05:59:46.710Z,98.30
2022-10-01T06:00:46.995Z,97.64
2022-10-01T06:01:46.747Z,97.64
2022-10-01T06:02:46.709Z,97.95
2022-10-01T06:03:46.676Z,97.95
2022-10-01T06:04:46.656Z,98.15
2022-10-01T06:05:46.648Z,98.36
2022-10-01T06:06:46.637Z,98.36
2022-10-01T06:07:46.617Z,98.25
2022-10-01T06:08:46.598Z,98.05
2022-10-01T06:09:46.577Z,97.74
2022-10-01T06:10:46.618Z,97.74
2022-10-01T06:11:46.866Z,97.85
2022-10-01T06:12:46.558Z,97.95
2022-10-01T06:13:46.819Z,97.33
2022-10-01T06:14:46.548Z,97.24
2022-10-01T06:15:46.529Z,97.03
2022-10-01T06:16:46.579Z,96.42
2022-10-01T06:17:46.518Z,96.17
2022-10-01T06:18:46.489Z,96.68
2022-10-01T06:19:46.469Z,96.98
2022-10-01T06:20:46.495Z,96.68
2022-10-01T06:21:46.748Z,97.19
2022-10-01T06:22:46.449Z,96.68
2022-10-01T06:23:46.708Z,96.68
2022-10-01T06:24:46.722Z,96.27
2022-10-01T06:25:46.405Z,96.98
2022-10-01T06:26:46.419Z,97.08
2022-10-01T06:27:46.424Z,96.88
2022-10-01T06:28:46.379Z,97.19
2022-10-01T06:29:46.360Z,96.88
2022-10-01T06:30:46.369Z,96.68
2022-10-01T06:31:46.365Z,96.58
2022-10-01T06:32:46.345Z,97.08
2022-10-01T06:33:46.320Z,97.39
2022-10-01T06:34:46.320Z,97.60
2022-10-01T06:35:46.308Z,97.29
2022-10-01T06:36:46.280Z,97.19
2022-10-01T06:37:46.341Z,96.37
2022-10-01T06:38:46.285Z,96.27
2022-10-01T06:39:46.254Z,96.27
2022-10-01T06:40:46.516Z,96.27
2022-10-01T06:41:46.551Z,96.06
2022-10-01T06:42:46.213Z,96.17
2022-10-01T06:43:46.211Z,96.06
2022-10-01T06:44:46.222Z,95.65
2022-10-01T06:45:46.239Z,95.81
2022-10-01T06:46:46.189Z,95.81
2022-10-01T06:47:46.191Z,96.12
2022-10-01T06:48:46.152Z,96.22
2022-10-01T06:49:47.852Z,96.22
2022-10-01T06:50:46.161Z,95.92
2022-10-01T06:51:46.130Z,95.51
2022-10-01T06:52:46.107Z,95.41
2022-10-01T06:53:46.092Z,95.51
2022-10-01T06:54:46.105Z,96.33
2022-10-01T06:55:46.084Z,96.53
2022-10-01T06:56:46.063Z,96.22
2022-10-01T06:57:46.343Z,96.33
2022-10-01T06:58:46.051Z,96.43
2022-10-01T06:59:46.031Z,96.73
2022-10-01T07:00:46.114Z,96.84
2022-10-01T07:01:46.473Z,97.34
2022-10-01T07:02:46.036Z,97.65
2022-10-01T07:03:45.983Z,98.27
2022-10-01T07:04:45.987Z,98.68
2022-10-01T07:05:45.984Z,98.98
2022-10-01T07:06:45.947Z,99.08
2022-10-01T07:07:46.211Z,99.18
2022-10-01T07:08:45.954Z,99.29
2022-10-01T07:09:45.944Z,99.02
2022-10-01T07:10:46.755Z,98.68
2022-10-01T07:11:45.929Z,98.36
2022-10-01T07:12:45.889Z,98.27
2022-10-01T07:13:45.866Z,97.65
2022-10-01T07:14:45.873Z,97.45
2022-10-01T07:15:46.136Z,97.50
2022-10-01T07:16:45.925Z,97.40
2022-10-01T07:17:45.825Z,97.40
2022-10-01T07:18:45.833Z,97.40
2022-10-01T07:19:45.797Z,97.50
2022-10-01T07:20:45.801Z,97.20
2022-10-01T07:21:45.802Z,97.61
2022-10-01T07:22:45.779Z,97.30
2022-10-01T07:23:45.749Z,97.20
2022-10-01T07:24:45.759Z,97.09
2022-10-01T07:25:46.039Z,97.00
2022-10-01T07:26:45.720Z,96.54
2022-10-01T07:27:45.720Z,96.64
2022-10-01T07:28:45.708Z,96.54
2022-10-01T07:29:45.680Z,96.34
2022-10-01T07:30:49.589Z,95.73
2022-10-01T07:31:45.732Z,95.78
2022-10-01T07:32:45.667Z,96.39
2022-10-01T07:33:45.656Z,95.78
2022-10-01T07:34:45.619Z,95.37
2022-10-01T07:35:45.650Z,95.53
2022-10-01T07:36:45.640Z,94.72
2022-10-01T07:37:45.598Z,94.31
2022-10-01T07:38:45.857Z,94.42
2022-10-01T07:39:45.580Z,94.68
2022-10-01T07:40:45.559Z,93.45
2022-10-01T07:41:46.343Z,93.15
2022-10-01T07:42:45.551Z,93.55
2022-10-01T07:43:45.533Z,93.76
2022-10-01T07:44:45.507Z,92.44
2022-10-01T07:45:45.571Z,92.23
2022-10-01T07:46:45.510Z,91.42
2022-10-01T07:47:45.470Z,91.42
2022-10-01T07:48:45.731Z,91.48
2022-10-01T07:49:45.732Z,92.40
2022-10-01T07:50:45.442Z,91.68
2022-10-01T07:51:45.440Z,92.19
2022-10-01T07:52:45.432Z,93.01
2022-10-01T07:53:45.411Z,93.01
2022-10-01T07:54:45.385Z,93.10
2022-10-01T07:55:45.402Z,93.71
2022-10-01T07:56:45.393Z,93.21
2022-10-01T07:57:45.362Z,92.70
2022-10-01T07:58:45.363Z,92.70
2022-10-01T07:59:45.347Z,93.10
2022-10-01T08:00:45.334Z,93.71
2022-10-01T08:01:45.360Z,93.41
2022-10-01T08:02:45.355Z,92.80
2022-10-01T08:03:45.304Z,92.90
2022-10-01T08:04:45.273Z,92.49
2022-10-01T08:05:45.276Z,92.60
2022-10-01T08:06:45.316Z,92.80
2022-10-01T08:07:45.247Z,93.41
2022-10-01T08:08:45.240Z,92.40
2022-10-01T08:09:45.273Z,93.01
2022-10-01T08:10:45.213Z,91.48
2022-10-01T08:11:45.220Z,91.78
2022-10-01T08:12:45.221Z,92.19
2022-10-01T08:13:45.174Z,92.60
2022-10-01T08:14:45.155Z,92.40
2022-10-01T08:15:45.135Z,93.10
2022-10-01T08:16:45.257Z,93.31
2022-10-01T08:17:45.136Z,92.60
2022-10-01T08:18:45.127Z,92.49
2022-10-01T08:19:45.388Z,92.40
2022-10-01T08:20:45.365Z,92.19
2022-10-01T08:21:45.106Z,91.94
2022-10-01T08:22:45.087Z,91.84
2022-10-01T08:23:45.066Z,91.74
2022-10-01T08:24:45.042Z,91.74
2022-10-01T08:25:45.040Z,92.45
2022-10-01T08:26:45.099Z,92.76
2022-10-01T08:27:45.007Z,92.25
2022-10-01T08:28:44.998Z,92.55
2022-10-01T08:29:44.987Z,92.10
2022-10-01T08:30:44.988Z,92.30
2022-10-01T08:31:45.022Z,91.09
2022-10-01T08:32:44.950Z,92.10
2022-10-01T08:33:44.948Z,91.80
2022-10-01T08:34:44.918Z,91.80
2022-10-01T08:35:44.920Z,91.60
2022-10-01T08:36:44.954Z,90.17
2022-10-01T08:37:45.169Z,91.09
2022-10-01T08:38:45.971Z,91.35
2022-10-01T08:39:44.860Z,91.55
2022-10-01T08:40:44.870Z,90.03
2022-10-01T08:41:45.333Z,89.22
2022-10-01T08:42:44.830Z,91.05
2022-10-01T08:43:44.840Z,91.20
2022-10-01T08:44:44.812Z,90.80
2022-10-01T08:45:44.884Z,91.20
2022-10-01T08:46:44.846Z,90.64
2022-10-01T08:47:44.777Z,89.83
2022-10-01T08:48:44.761Z,89.37
2022-10-01T08:49:44.750Z,89.78
2022-10-01T08:50:44.758Z,89.48
2022-10-01T08:51:44.722Z,89.48
2022-10-01T08:52:44.702Z,89.33
2022-10-01T08:53:44.711Z,89.98
2022-10-01T08:54:44.700Z,89.17
2022-10-01T08:55:44.699Z,89.13
2022-10-01T08:56:44.717Z,89.13
2022-10-01T08:57:44.680Z,89.33
2022-10-01T08:58:44.641Z,88.73
2022-10-01T08:59:44.622Z,87.81
2022-10-01T09:00:44.710Z,88.28
2022-10-01T09:01:44.662Z,87.06
2022-10-01T09:02:44.584Z,87.87
2022-10-01T09:03:44.584Z,88.68
2022-10-01T09:04:44.609Z,88.58
2022-10-01T09:05:44.563Z,88.78
2022-10-01T09:06:44.590Z,88.68
2022-10-01T09:07:44.545Z,89.03
2022-10-01T09:08:44.525Z,89.13
2022-10-01T09:09:44.515Z,89.03
2022-10-01T09:10:44.514Z,89.33
2022-10-01T09:11:44.484Z,89.84
2022-10-01T09:12:44.480Z,89.33
2022-10-01T09:13:49.346Z,89.43
2022-10-01T09:14:45.494Z,89.43
2022-10-01T09:15:44.445Z,90.05
2022-10-01T09:16:44.540Z,90.05
2022-10-01T09:17:44.426Z,90.66
2022-10-01T09:18:44.722Z,90.66
2022-10-01T09:19:47.780Z,91.26
2022-10-01T09:20:44.386Z,90.96
2022-10-01T09:21:44.387Z,90.61
2022-10-01T09:22:44.382Z,91.42
2022-10-01T09:23:44.345Z,90.71
2022-10-01T09:24:44.360Z,91.22
2022-10-01T09:25:45.417Z,91.73
2022-10-01T09:26:44.327Z,91.83
2022-10-01T09:27:44.371Z,91.83
2022-10-01T09:28:44.307Z,92.13
2022-10-01T09:29:44.289Z,92.33
2022-10-01T09:30:44.298Z,92.54
2022-10-01T09:31:44.307Z,92.84
2022-10-01T09:32:44.249Z,93.29
2022-10-01T09:33:44.248Z,94.00
2022-10-01T09:34:44.243Z,94.10
2022-10-01T09:35:44.507Z,94.31
2022-10-01T09:36:44.199Z,94.31
2022-10-01T09:37:44.202Z,94.71
2022-10-01T09:38:44.191Z,94.61
2022-10-01T09:39:44.169Z,95.22
2022-10-01T09:40:44.163Z,95.42
2022-10-01T09:41:44.429Z,94.92
2022-10-01T09:42:44.152Z,95.02
2022-10-01T09:43:44.123Z,95.22
2022-10-01T09:44:44.159Z,95.38
2022-10-01T09:45:44.444Z,95.18
2022-10-01T09:46:44.081Z,94.57
2022-10-01T09:47:44.081Z,94.77
2022-10-01T09:48:44.090Z,94.17
2022-10-01T09:49:44.099Z,94.77
2022-10-01T09:50:44.034Z,94.77
2022-10-01T09:51:45.467Z,94.17
2022-10-01T09:52:44.962Z,94.00
2022-10-01T09:53:44.020Z,93.90
2022-10-01T09:54:44.012Z,94.51
2022-10-01T09:55:44.017Z,94.71
2022-10-01T09:56:43.980Z,94.71
2022-10-01T09:57:43.988Z,95.12
2022-10-01T09:58:43.984Z,94.77
2022-10-01T09:59:43.954Z,94.57
2022-10-01T10:00:43.951Z,94.32
2022-10-01T10:01:44.022Z,93.61
2022-10-01T10:02:48.958Z,93.81
2022-10-01T10:03:46.693Z,93.51
2022-10-01T10:04:43.885Z,93.10
2022-10-01T10:05:44.165Z,92.80
2022-10-01T10:06:44.144Z,93.21
2022-10-01T10:07:44.605Z,93.41
2022-10-01T10:08:44.118Z,92.90
2022-10-01T10:09:43.862Z,93.30
2022-10-01T10:10:44.826Z,93.26
2022-10-01T10:11:44.735Z,93.67
2022-10-01T10:12:43.936Z,93.67
2022-10-01T10:13:44.543Z,93.37
2022-10-01T10:14:43.768Z,93.97
2022-10-01T10:15:43.795Z,93.16
2022-10-01T10:16:44.758Z,93.42
2022-10-01T10:17:43.736Z,93.62
2022-10-01T10:18:43.748Z,92.82
2022-10-01T10:19:44.051Z,92.77
2022-10-01T10:20:43.704Z,92.47
2022-10-01T10:21:43.707Z,90.03
2022-10-01T10:22:43.687Z,89.69
2022-10-01T10:23:43.668Z,89.85
2022-10-01T10:24:43.677Z,90.16
2022-10-01T10:25:43.703Z,89.70
2022-10-01T10:26:43.646Z,89.91
2022-10-01T10:27:43.650Z,88.96
2022-10-01T10:28:44.350Z,89.46
2022-10-01T10:29:43.609Z,88.75
2022-10-01T10:30:43.608Z,87.44
2022-10-01T10:31:43.661Z,87.95
2022-10-01T10:32:43.867Z,87.81
2022-10-01T10:33:43.563Z,85.62
2022-10-01T10:34:43.547Z,85.28
2022-10-01T10:35:43.846Z,85.68
2022-10-01T10:36:43.531Z,86.95
2022-10-01T10:37:43.535Z,84.33
2022-10-01T10:38:43.502Z,83.28
2022-10-01T10:39:43.525Z,82.17
2022-10-01T10:40:43.519Z,82.78
2022-10-01T10:41:43.452Z,82.84
2022-10-01T10:42:44.322Z,83.14
2022-10-01T10:43:43.423Z,82.84
2022-10-01T10:44:43.435Z,81.32
2022-10-01T10:45:43.429Z,82.47
2022-10-01T10:46:46.157Z,82.37
2022-10-01T10:47:43.397Z,82.31
2022-10-01T10:48:43.416Z,82.21
2022-10-01T10:49:43.420Z,83.52
2022-10-01T10:50:43.356Z,82.65
2022-10-01T10:51:43.328Z,82.65
2022-10-01T10:52:45.693Z,84.12
2022-10-01T10:53:43.334Z,83.01
2022-10-01T10:54:44.048Z,81.76
2022-10-01T10:55:43.307Z,82.53
2022-10-01T10:56:43.287Z,83.24
2022-10-01T10:57:43.305Z,83.04
2022-10-01T10:58:43.254Z,83.34
2022-10-01T10:59:43.527Z,82.93
2022-10-01T11:00:44.126Z,78.70
2022-10-01T11:01:43.419Z,80.11
2022-10-01T11:02:44.489Z,80.62
2022-10-01T11:03:43.937Z,79.71
2022-10-01T11:04:44.004Z,80.01
2022-10-01T11:05:43.935Z,78.33
2022-10-01T11:06:43.747Z,78.09
2022-10-01T11:07:43.249Z,77.79
2022-10-01T11:08:43.536Z,77.39
2022-10-01T11:09:44.269Z,78.19
2022-10-01T11:10:44.185Z,77.28
2022-10-01T11:11:44.090Z,78.90
2022-10-01T11:12:43.167Z,78.09
2022-10-01T11:13:43.648Z,77.79
2022-10-01T11:14:43.059Z,78.90
2022-10-01T11:15:43.419Z,79.71
2022-10-01T11:16:43.051Z,79.81
2022-10-01T11:17:43.041Z,77.59
2022-10-01T11:18:43.010Z,77.45
2022-10-01T11:19:43.032Z,77.04
2022-10-01T11:20:42.979Z,78.06
2022-10-01T11:21:42.981Z,76.44
2022-10-01T11:22:43.030Z,77.35
2022-10-01T11:23:42.959Z,76.61
2022-10-01T11:24:42.951Z,76.00
2022-10-01T11:25:43.234Z,76.61
2022-10-01T11:26:42.941Z,76.54
2022-10-01T11:27:42.919Z,74.32
2022-10-01T11:28:42.891Z,76.44
2022-10-01T11:29:42.902Z,74.73
2022-10-01T11:30:42.870Z,74.39
2022-10-01T11:31:42.913Z,74.90
2022-10-01T11:32:42.875Z,74.86
2022-10-01T11:33:42.862Z,74.35
2022-10-01T11:34:42.854Z,74.66
2022-10-01T11:35:42.822Z,73.75
2022-10-01T11:36:42.821Z,72.81
2022-10-01T11:37:42.798Z,72.64
2022-10-01T11:38:42.779Z,72.64
2022-10-01T11:39:43.044Z,74.76
2022-10-01T11:40:42.786Z,74.15
2022-10-01T11:41:42.734Z,73.85
2022-10-01T11:42:43.039Z,74.46
2022-10-01T11:43:42.733Z,74.55
2022-10-01T11:44:42.716Z,74.96
2022-10-01T11:45:42.704Z,75.56
2022-10-01T11:46:43.017Z,74.66
2022-10-01T11:47:42.733Z,73.55
2022-10-01T11:48:42.656Z,73.75
2022-10-01T11:49:42.682Z,74.46
2022-10-01T11:50:42.660Z,73.99
2022-10-01T11:51:42.626Z,74.39
2022-10-01T11:52:42.626Z,74.99
2022-10-01T11:53:42.628Z,75.54
2022-10-01T11:54:42.597Z,76.64
2022-10-01T11:55:42.596Z,76.04
2022-10-01T11:56:42.591Z,75.84
2022-10-01T11:57:42.578Z,76.04
2022-10-01T11:58:42.560Z,75.90
2022-10-01T11:59:43.259Z,75.90
2022-10-01T12:00:42.542Z,74.59
2022-10-01T12:01:42.557Z,75.56
2022-10-01T12:02:42.500Z,72.94
2022-10-01T12:03:42.511Z,72.74
2022-10-01T12:04:42.502Z,72.64
2022-10-01T12:05:42.521Z,73.25
2022-10-01T12:06:43.427Z,74.05
2022-10-01T12:07:42.460Z,74.02
2022-10-01T12:08:42.670Z,72.51
2022-10-01T12:09:42.432Z,71.91
2022-10-01T12:10:42.430Z,72.51
2022-10-01T12:11:42.409Z,72.07
2022-10-01T12:12:42.392Z,72.67
2022-10-01T12:13:42.404Z,72.14
2022-10-01T12:14:42.393Z,71.83
2022-10-01T12:15:42.377Z,71.13
2022-10-01T12:16:42.497Z,72.57
2022-10-01T12:17:42.366Z,72.17
2022-10-01T12:18:42.321Z,72.20
2022-10-01T12:19:42.322Z,71.91
2022-10-01T12:20:42.562Z,71.44
2022-10-01T12:21:42.554Z,71.03
2022-10-01T12:22:42.275Z,71.10
2022-10-01T12:23:42.285Z,70.50
2022-10-01T12:24:42.348Z,70.19
2022-10-01T12:25:42.257Z,70.56
2022-10-01T12:26:42.226Z,69.45
2022-10-01T12:27:42.250Z,69.76
2022-10-01T12:28:42.247Z,69.56
2022-10-01T12:29:42.207Z,68.62
2022-10-01T12:30:42.198Z,68.01
2022-10-01T12:31:42.280Z,68.82
2022-10-01T12:32:42.193Z,69.69
2022-10-01T12:33:42.148Z,68.78
2022-10-01T12:34:42.436Z,67.71
2022-10-01T12:35:42.125Z,67.81
2022-10-01T12:36:42.117Z,67.21
2022-10-01T12:37:42.120Z,65.50
2022-10-01T12:38:42.117Z,66.37
2022-10-01T12:39:42.099Z,67.38
2022-10-01T12:40:42.104Z,67.98
2022-10-01T12:41:42.072Z,65.59
2022-10-01T12:42:42.059Z,65.19
2022-10-01T12:43:42.029Z,65.53
2022-10-01T12:44:42.446Z,67.34
2022-10-01T12:45:43.038Z,66.33
2022-10-01T12:46:42.176Z,66.50
2022-10-01T12:47:43.068Z,67.00
2022-10-01T12:48:42.001Z,67.81
2022-10-01T12:49:41.995Z,67.07
2022-10-01T12:50:41.961Z,66.27
2022-10-01T12:51:41.978Z,66.84
2022-10-01T12:52:41.939Z,65.60